createdAt,value
2022-09-03T00:01:42.754Z,99038.16
2022-09-03T00:05:05.423Z,99032.59
2022-09-03T00:08:28.547Z,99027.38
2022-09-03T00:11:58.853Z,99017.16
2022-09-03T00:14:52.392Z,99023.09
2022-09-03T00:17:50.142Z,99023.91
2022-09-03T00:20:42.840Z,99014.00
2022-09-03T00:23:31.395Z,99010.03
2022-09-03T00:26:27.291Z,99007.28
2022-09-03T00:29:20.205Z,99012.81
2022-09-03T00:32:14.868Z,99005.28
2022-09-03T00:35:04.712Z,99011.59
2022-09-03T00:37:52.490Z,98999.34
2022-09-03T00:40:54.497Z,99009.69
2022-09-03T00:43:55.003Z,99005.31
2022-09-03T00:47:11.332Z,99006.53
2022-09-03T00:50:18.019Z,99008.88
2022-09-03T00:53:40.818Z,99010.88
2022-09-03T00:56:31.292Z,98993.84
2022-09-03T00:59:25.318Z,98998.59
2022-09-03T01:02:34.192Z,99003.75
2022-09-03T01:05:38.394Z,99003.41
2022-09-03T01:08:35.872Z,98994.66
2022-09-03T01:11:27.556Z,99003.00
2022-09-03T01:14:57.660Z,99001.00
2022-09-03T01:17:52.296Z,99005.75
2022-09-03T01:20:47.127Z,98999.84
2022-09-03T01:23:55.723Z,98999.41
2022-09-03T01:26:59.696Z,98997.84
2022-09-03T01:29:55.608Z,99003.41
2022-09-03T01:33:14.236Z,99008.19
2022-09-03T01:36:17.120Z,99012.50
2022-09-03T01:39:06.492Z,99008.59
2022-09-03T01:42:20.255Z,99007.38
2022-09-03T01:45:21.608Z,99011.38
2022-09-03T01:48:22.281Z,99014.13
2022-09-03T01:51:21.004Z,99008.59
2022-09-03T01:54:26.618Z,99010.59
2022-09-03T01:57:37.087Z,99006.22
2022-09-03T02:00:25.135Z,99003.81
2022-09-03T02:03:12.634Z,99005.81
2022-09-03T02:05:57.972Z,98998.69
2022-09-03T02:08:43.422Z,99005.81
2022-09-03T02:11:28.969Z,99001.47
2022-09-03T02:14:14.992Z,99009.00
2022-09-03T02:17:02.179Z,99002.69
2022-09-03T02:19:48.019Z,99001.91
2022-09-03T02:22:34.630Z,99012.22
2022-09-03T02:25:21.195Z,99008.22
2022-09-03T02:28:17.150Z,99012.22
2022-09-03T02:31:03.962Z,99013.00
2022-09-03T02:33:50.958Z,99012.22
2022-09-03T02:36:42.500Z,99015.00
2022-09-03T02:39:29.010Z,99015.00
2022-09-03T02:42:15.936Z,99009.44
2022-09-03T02:45:14.192Z,99011.41
2022-09-03T02:48:00.637Z,99013.81
2022-09-03T02:50:46.091Z,99010.63
2022-09-03T02:53:31.507Z,99009.09
2022-09-03T02:56:16.629Z,99010.63
2022-09-03T02:59:03.752Z,99003.53
2022-09-03T03:01:49.957Z,99011.84
2022-09-03T03:04:35.105Z,99007.50
2022-09-03T03:07:20.550Z,99009.50
2022-09-03T03:10:06.087Z,99003.94
2022-09-03T03:12:51.430Z,98996.41
2022-09-03T03:15:36.725Z,98996.41
2022-09-03T03:18:21.890Z,98997.63
2022-09-03T03:21:10.326Z,98989.31
2022-09-03T03:23:55.579Z,98990.84
2022-09-03T03:26:41.262Z,98995.63
2022-09-03T03:29:26.641Z,98996.41
2022-09-03T03:32:11.928Z,98994.84
2022-09-03T03:34:57.337Z,98992.84
2022-09-03T03:37:42.535Z,99003.94
2022-09-03T03:40:28.028Z,99006.72
2022-09-03T03:43:13.499Z,99007.50
2022-09-03T03:45:59.054Z,99001.59
2022-09-03T03:48:47.492Z,98994.06
2022-09-03T03:51:33.927Z,98988.53
2022-09-03T03:54:19.611Z,99002.03
2022-09-03T03:57:05.120Z,98998.81
2022-09-03T03:59:50.690Z,99000.81
2022-09-03T04:02:39.048Z,98997.25
2022-09-03T04:05:24.512Z,98995.25
2022-09-03T04:08:09.887Z,98987.72
2022-09-03T04:11:00.381Z,98989.72
2022-09-03T04:13:47.465Z,98986.16
2022-09-03T04:16:33.183Z,98981.81
2022-09-03T04:19:19.397Z,98988.56
2022-09-03T04:22:04.979Z,98983.03
2022-09-03T04:24:50.182Z,98987.78
2022-09-03T04:27:35.571Z,98987.78
2022-09-03T04:30:21.297Z,98981.03
2022-09-03T04:33:06.913Z,98981.44
2022-09-03T04:36:05.555Z,98985.81
2022-09-03T04:38:54.494Z,98975.91
2022-09-03T04:41:39.852Z,98984.22
2022-09-03T04:44:25.071Z,98987.00
2022-09-03T04:47:10.432Z,98989.75
2022-09-03T04:49:55.880Z,98998.09
2022-09-03T04:52:41.375Z,98990.94
2022-09-03T04:55:27.144Z,98994.84
2022-09-03T04:58:12.556Z,98994.06
2022-09-03T05:00:58.113Z,98995.63
2022-09-03T05:03:44.315Z,98993.63
2022-09-03T05:06:31.583Z,98988.06
2022-09-03T05:09:16.854Z,98989.22
2022-09-03T05:12:02.413Z,98987.59
2022-09-03T05:14:49.281Z,98978.06
2022-09-03T05:17:37.660Z,98975.28
2022-09-03T05:20:23.603Z,98983.97
2022-09-03T05:23:09.118Z,98982.75
2022-09-03T05:25:59.839Z,98985.06
2022-09-03T05:28:46.360Z,98974.66
2022-09-03T05:31:32.113Z,98976.31
2022-09-03T05:34:18.387Z,98981.03
2022-09-03T05:37:04.662Z,98982.56
2022-09-03T05:39:50.327Z,98987.34
2022-09-03T05:42:38.003Z,98985.72
2022-09-03T05:45:23.395Z,98992.81
2022-09-03T05:48:08.632Z,98986.47
2022-09-03T05:51:02.048Z,98988.06
2022-09-03T05:53:49.489Z,98979.38
2022-09-03T05:56:36.299Z,98988.91
2022-09-03T05:59:21.536Z,98988.13
2022-09-03T06:02:06.807Z,98988.91
2022-09-03T06:04:52.084Z,98996.88
2022-09-03T06:07:37.774Z,98990.13
2022-09-03T06:10:26.650Z,98991.69
2022-09-03T06:13:14.993Z,98988.13
2022-09-03T06:16:02.202Z,98986.56
2022-09-03T06:18:47.752Z,98997.22
2022-09-03T06:21:33.363Z,98997.59
2022-09-03T06:24:26.504Z,98996.41
2022-09-03T06:27:13.522Z,99003.50
2022-09-03T06:29:59.956Z,98995.16
2022-09-03T06:32:48.445Z,98990.41
2022-09-03T06:35:42.751Z,98999.88
2022-09-03T06:38:32.118Z,99001.47
2022-09-03T06:41:21.498Z,98990.72
2022-09-03T06:44:13.286Z,98996.28
2022-09-03T06:47:01.633Z,98999.06
2022-09-03T06:49:46.922Z,98994.28
2022-09-03T06:52:32.162Z,98995.06
2022-09-03T06:55:17.324Z,98989.50
2022-09-03T06:58:02.891Z,98988.31
2022-09-03T07:00:49.784Z,98987.09
2022-09-03T07:03:36.650Z,98985.81
2022-09-03T07:06:24.192Z,98977.50
2022-09-03T07:09:11.410Z,98985.41
2022-09-03T07:11:56.675Z,98978.97
2022-09-03T07:14:42.108Z,98973.44
2022-09-03T07:17:28.371Z,98969.72
2022-09-03T07:20:13.771Z,98972.88
2022-09-03T07:22:58.966Z,98969.69
2022-09-03T07:25:44.198Z,98977.94
2022-09-03T07:28:30.379Z,98977.13
2022-09-03T07:31:25.399Z,98973.94
2022-09-03T07:34:12.750Z,98968.31
2022-09-03T07:36:58.081Z,98959.56
2022-09-03T07:39:43.725Z,98956.34
2022-09-03T07:42:29.092Z,98954.81
2022-09-03T07:45:14.491Z,98960.69
2022-09-03T07:48:00.450Z,98959.84
2022-09-03T07:50:47.725Z,98962.69
2022-09-03T07:53:34.298Z,98957.50
2022-09-03T07:56:20.202Z,98963.41
2022-09-03T07:59:05.919Z,98960.25
2022-09-03T08:01:52.212Z,98962.97
2022-09-03T08:04:38.607Z,98962.53
2022-09-03T08:07:23.828Z,98963.19
2022-09-03T08:10:09.444Z,98959.53
2022-09-03T08:12:55.035Z,98962.31
2022-09-03T08:15:42.965Z,98956.03
2022-09-03T08:18:32.034Z,98960.41
2022-09-03T08:21:20.214Z,98958.69
2022-09-03T08:24:06.616Z,98957.47
2022-09-03T08:26:52.733Z,98958.69
2022-09-03T08:29:38.522Z,98952.78
2022-09-03T08:32:24.290Z,98959.88
2022-09-03T08:35:09.663Z,98958.34
2022-09-03T08:37:56.765Z,98956.34
2022-09-03T08:40:45.762Z,98955.91
2022-09-03T08:43:36.954Z,98957.47
2022-09-03T08:46:32.572Z,98955.03
2022-09-03T08:49:44.361Z,98944.81
2022-09-03T08:52:32.618Z,98944.28
2022-09-03T08:55:29.684Z,98951.84
2022-09-03T08:58:29.914Z,98947.91
2022-09-03T09:01:31.905Z,98938.38
2022-09-03T09:04:35.806Z,98939.16
2022-09-03T09:07:49.710Z,98934.38
2022-09-03T09:10:46.217Z,98934.00
2022-09-03T09:13:44.046Z,98929.69
2022-09-03T09:16:55.500Z,98929.25
2022-09-03T09:20:07.088Z,98935.59
2022-09-03T09:23:02.879Z,98940.78
2022-09-03T09:25:50.507Z,98940.72
2022-09-03T09:28:38.088Z,98937.16
2022-09-03T09:31:23.835Z,98929.97
2022-09-03T09:34:09.849Z,98926.38
2022-09-03T09:36:56.355Z,98924.41
2022-09-03T09:39:59.124Z,98927.09
2022-09-03T09:42:44.875Z,98925.53
2022-09-03T09:45:32.563Z,98916.84
2022-09-03T09:48:31.643Z,98914.69
2022-09-03T09:51:22.784Z,98916.69
2022-09-03T09:54:20.089Z,98922.84
2022-09-03T09:57:07.421Z,98910.88
2022-09-03T10:00:22.734Z,98912.03
2022-09-03T10:03:13.810Z,98913.16
2022-09-03T10:06:26.157Z,98908.75
2022-09-03T10:09:18.718Z,98907.88
2022-09-03T10:12:19.764Z,98898.69
2022-09-03T10:15:24.705Z,98899.81
2022-09-03T10:18:17.666Z,98902.94
2022-09-03T10:21:15.659Z,98897.72
2022-09-03T10:24:14.046Z,98902.75
2022-09-03T10:26:59.524Z,98900.75
2022-09-03T10:29:45.779Z,98898.78
2022-09-03T10:32:49.377Z,98898.84
2022-09-03T10:35:46.286Z,98895.28
2022-09-03T10:38:37.977Z,98889.63
2022-09-03T10:41:55.930Z,98885.28
2022-09-03T10:45:09.883Z,98880.50
2022-09-03T10:48:07.258Z,98879.72
2022-09-03T10:51:04.687Z,98872.28
2022-09-03T10:54:12.764Z,98868.78
2022-09-03T10:57:10.185Z,98865.66
2022-09-03T11:00:10.396Z,98866.53
2022-09-03T11:03:31.237Z,98866.19
2022-09-03T11:06:28.616Z,98859.50
2022-09-03T11:09:19.877Z,98867.81
2022-09-03T11:12:11.612Z,98859.94
2022-09-03T11:15:03.818Z,98870.34
2022-09-03T11:17:56.911Z,98866.00
2022-09-03T11:20:43.127Z,98856.16
2022-09-03T11:23:31.602Z,98861.38
2022-09-03T11:26:19.726Z,98860.25
2022-09-03T11:29:24.985Z,98851.56
2022-09-03T11:32:18.163Z,98861.81
2022-09-03T11:35:14.928Z,98840.00
2022-09-03T11:38:01.581Z,98845.16
2022-09-03T11:41:15.816Z,98849.13
2022-09-03T11:44:17.266Z,98842.38
2022-09-03T11:47:16.201Z,98854.69
2022-09-03T11:50:21.168Z,98853.38
2022-09-03T11:53:10.918Z,98861.63
2022-09-03T11:56:00.801Z,98853.25
2022-09-03T11:59:19.691Z,98844.47
2022-09-03T12:02:23.589Z,98844.81
2022-09-03T12:05:54.129Z,98842.03
2022-09-03T12:08:52.937Z,98838.84
2022-09-03T12:12:14.014Z,98833.16
2022-09-03T12:15:05.938Z,98836.75
2022-09-03T12:18:16.575Z,98836.63
2022-09-03T12:21:05.944Z,98831.44
2022-09-03T12:23:58.497Z,98837.44
2022-09-03T12:26:44.240Z,98838.56
2022-09-03T12:29:31.739Z,98837.69
2022-09-03T12:32:18.669Z,98837.34
2022-09-03T12:38:29.467Z,98829.34
2022-09-03T12:42:01.638Z,98830.94
2022-09-03T12:44:47.250Z,98826.91
2022-09-03T12:47:39.209Z,98819.69
2022-09-03T12:50:25.681Z,98822.47
2022-09-03T12:53:14.540Z,98811.69
2022-09-03T12:56:02.087Z,98815.59
2022-09-03T12:58:56.673Z,98823.50
2022-09-03T13:01:49.499Z,98817.25
2022-09-03T13:04:37.799Z,98818.03
2022-09-03T13:07:23.624Z,98814.06
2022-09-03T13:10:24.153Z,98815.59
2022-09-03T13:13:37.113Z,98801.00
2022-09-03T13:16:49.019Z,98806.56
2022-09-03T13:19:34.498Z,98796.25
2022-09-03T13:22:22.739Z,98799.47
2022-09-03T13:25:30.548Z,98801.53
2022-09-03T13:28:23.916Z,98794.44
2022-09-03T13:31:41.367Z,98800.00
2022-09-03T13:34:35.536Z,98798.06
2022-09-03T13:37:58.219Z,98801.63
2022-09-03T13:40:48.694Z,98799.19
2022-09-03T13:44:03.100Z,98799.09
2022-09-03T13:46:54.923Z,98790.78
2022-09-03T13:50:10.307Z,98788.00
2022-09-03T13:53:08.314Z,98785.56
2022-09-03T13:55:57.963Z,98788.69
2022-09-03T13:58:50.916Z,98786.59
2022-09-03T14:02:02.244Z,98789.25
2022-09-03T14:05:18.705Z,98784.47
2022-09-03T14:08:26.259Z,98777.44
2022-09-03T14:11:29.023Z,98779.59
2022-09-03T14:14:17.566Z,98773.59
2022-09-03T14:17:08.787Z,98773.19
2022-09-03T14:20:07.189Z,98783.97
2022-09-03T14:23:03.245Z,98777.50
2022-09-03T14:25:55.901Z,98771.41
2022-09-03T14:28:50.141Z,98779.31
2022-09-03T14:32:09.808Z,98783.22
2022-09-03T14:35:23.205Z,98789.47
2022-09-03T14:38:59.261Z,98791.03
2022-09-03T14:41:47.696Z,98792.25
2022-09-03T14:44:36.151Z,98787.03
2022-09-03T14:47:43.016Z,98779.38
2022-09-03T14:50:46.293Z,98783.69
2022-09-03T14:53:37.877Z,98782.16
2022-09-03T14:56:44.462Z,98778.91
2022-09-03T14:59:50.391Z,98776.47
2022-09-03T15:02:48.369Z,98774.81
2022-09-03T15:06:00.374Z,98779.59
2022-09-03T15:09:28.890Z,98781.16
2022-09-03T15:12:14.344Z,98780.91
2022-09-03T15:15:05.227Z,98779.25
2022-09-03T15:18:00.231Z,98770.03
2022-09-03T15:20:50.895Z,98776.28
2022-09-03T15:24:01.035Z,98771.94
2022-09-03T15:27:20.706Z,98773.50
2022-09-03T15:30:10.101Z,98777.06
2022-09-03T15:32:55.337Z,98774.81
2022-09-03T15:35:52.653Z,98771.59
2022-09-03T15:38:47.805Z,98773.94
2022-09-03T15:41:57.434Z,98784.16
2022-09-03T15:44:54.098Z,98775.47
2022-09-03T15:47:52.064Z,98779.84
2022-09-03T15:50:53.151Z,98773.94
2022-09-03T15:54:04.989Z,98783.19
2022-09-03T15:56:59.807Z,98789.84
2022-09-03T15:59:45.501Z,98785.06
2022-09-03T16:02:44.566Z,98792.28
2022-09-03T16:06:08.150Z,98796.28
2022-09-03T16:09:07.284Z,98794.75
2022-09-03T16:12:27.852Z,98797.53
2022-09-03T16:15:23.392Z,98788.41
2022-09-03T16:18:36.920Z,98787.72
2022-09-03T16:21:44.422Z,98791.69
2022-09-03T16:24:43.441Z,98781.81
2022-09-03T16:27:46.536Z,98781.47
2022-09-03T16:30:37.734Z,98791.03
2022-09-03T16:33:42.010Z,98794.13
2022-09-03T16:36:27.492Z,98795.38
2022-09-03T16:39:37.466Z,98793.38
2022-09-03T16:42:27.242Z,98788.91
2022-09-03T16:45:35.628Z,98789.16
2022-09-03T16:48:20.720Z,98788.06
2022-09-03T16:52:05.641Z,98784.38
2022-09-03T16:55:31.877Z,98785.16
2022-09-03T16:58:30.979Z,98791.53
2022-09-03T17:01:42.508Z,98781.94
2022-09-03T17:04:59.035Z,98777.59
2022-09-03T17:08:01.385Z,98784.38
2022-09-03T17:11:00.391Z,98783.59
2022-09-03T17:13:56.256Z,98785.28
2022-09-03T17:17:19.662Z,98790.16
2022-09-03T17:20:49.370Z,98800.59
2022-09-03T17:23:59.811Z,98807.38
2022-09-03T17:27:04.381Z,98809.03
2022-09-03T17:30:05.936Z,98799.91
2022-09-03T17:33:07.355Z,98801.56
2022-09-03T17:36:07.105Z,98801.56
2022-09-03T17:38:52.552Z,98802.44
2022-09-03T17:41:54.780Z,98809.00
2022-09-03T17:44:47.086Z,98809.06
2022-09-03T17:47:50.740Z,98812.63
2022-09-03T17:50:50.769Z,98813.50
2022-09-03T17:54:03.975Z,98812.38
2022-09-03T17:57:05.592Z,98825.16
2022-09-03T18:00:00.070Z,98819.63
2022-09-03T18:02:55.006Z,98822.47
2022-09-03T18:05:50.612Z,98828.13
2022-09-03T18:09:01.702Z,98832.91
2022-09-03T18:11:49.770Z,98833.34
2022-09-03T18:14:55.934Z,98838.91
2022-09-03T18:17:53.246Z,98842.91
2022-09-03T18:21:29.257Z,98852.47
2022-09-03T18:24:51.175Z,98856.44
2022-09-03T18:27:59.342Z,98856.09
2022-09-03T18:31:04.243Z,98850.53
2022-09-03T18:34:08.258Z,98855.75
2022-09-03T18:37:16.401Z,98861.31
2022-09-03T18:40:20.272Z,98870.09
2022-09-03T18:43:42.073Z,98867.31
2022-09-03T18:48:01.829Z,98868.63
2022-09-03T18:50:55.685Z,98868.63
2022-09-03T18:54:09.181Z,98876.44
2022-09-03T18:57:13.439Z,98867.41
2022-09-03T19:00:29.142Z,98871.84
2022-09-03T19:03:54.185Z,98877.47
2022-09-03T19:07:40.064Z,98879.03
2022-09-03T19:10:52.723Z,98878.16
2022-09-03T19:13:59.282Z,98875.75
2022-09-03T19:17:28.240Z,98872.44
2022-09-03T19:20:50.314Z,98876.38
2022-09-03T19:23:54.372Z,98884.16
2022-09-03T19:27:46.076Z,98873.81
2022-09-03T19:30:50.726Z,98873.06
2022-09-03T19:34:16.662Z,98879.81
2022-09-03T19:37:32.246Z,98880.25
2022-09-03T19:40:50.442Z,98885.03
2022-09-03T19:44:30.494Z,98897.72
2022-09-03T19:48:02.456Z,98896.25
2022-09-03T19:51:26.964Z,98892.34
2022-09-03T19:54:30.616Z,98898.31
2022-09-03T19:57:36.152Z,98901.09
2022-09-03T20:00:40.610Z,98900.41
2022-09-03T20:03:45.429Z,98898.84
2022-09-03T20:06:52.895Z,98906.84
2022-09-03T20:10:00.775Z,98906.50
2022-09-03T20:12:56.137Z,98910.03
2022-09-03T20:16:00.365Z,98914.81
2022-09-03T20:19:18.284Z,98912.47
2022-09-03T20:22:32.594Z,98915.31
2022-09-03T20:25:26.813Z,98920.53
2022-09-03T20:28:28.623Z,98913.38
2022-09-03T20:31:27.325Z,98919.81
2022-09-03T20:34:34.915Z,98913.50
2022-09-03T20:37:41.644Z,98918.59
2022-09-03T20:40:41.909Z,98917.03
2022-09-03T20:43:49.531Z,98922.19
2022-09-03T20:46:45.484Z,98921.81
2022-09-03T20:49:38.198Z,98923.38
2022-09-03T20:52:46.634Z,98926.56
2022-09-03T20:55:42.956Z,98928.56
2022-09-03T20:59:01.601Z,98929.34
2022-09-03T21:02:01.499Z,98921.91
2022-09-03T21:05:09.339Z,98926.25
2022-09-03T21:08:33.513Z,98924.66
2022-09-03T21:11:27.356Z,98927.09
2022-09-03T21:14:18.745Z,98928.31
2022-09-03T21:17:10.099Z,98926.75
2022-09-03T21:20:24.869Z,98931.16
2022-09-03T21:23:31.479Z,98922.06
2022-09-03T21:26:16.934Z,98917.28
2022-09-03T21:29:25.569Z,98921.28
2022-09-03T21:32:25.063Z,98931.22
2022-09-03T21:35:19.733Z,98926.91
2022-09-03T21:38:14.123Z,98936.78
2022-09-03T21:41:15.186Z,98937.25
2022-09-03T21:44:05.517Z,98947.56
2022-09-03T21:47:02.113Z,98936.00
2022-09-03T21:50:00.564Z,98950.34
2022-09-03T21:52:54.701Z,98947.22
2022-09-03T21:56:13.757Z,98950.00
2022-09-03T21:59:19.717Z,98953.97
2022-09-03T22:02:25.619Z,98955.63
2022-09-03T22:05:10.946Z,98953.63
2022-09-03T22:08:22.547Z,98957.22
2022-09-03T22:11:15.727Z,98952.84
2022-09-03T22:14:10.260Z,98950.06
2022-09-03T22:17:03.974Z,98953.25
2022-09-03T22:19:50.321Z,98951.28
2022-09-03T22:22:43.900Z,98954.06
2022-09-03T22:25:52.496Z,98945.81
2022-09-03T22:29:07.933Z,98948.16
2022-09-03T22:32:04.035Z,98945.81
2022-09-03T22:34:55.286Z,98947.03
2022-09-03T22:37:57.252Z,98945.03
2022-09-03T22:41:12.127Z,98942.66
2022-09-03T22:44:09.290Z,98941.91
2022-09-03T22:47:29.778Z,98948.22
2022-09-03T22:50:24.819Z,98943.09
2022-09-03T22:53:28.746Z,98945.09
2022-09-03T22:56:22.128Z,98937.97
2022-09-03T22:59:15.722Z,98949.09
2022-09-03T23:02:22.336Z,98942.75
2022-09-03T23:05:16.303Z,98943.19
2022-09-03T23:08:10.644Z,98940.41
2022-09-03T23:11:25.261Z,98943.97
2022-09-03T23:14:34.367Z,98948.38
2022-09-03T23:20:26.415Z,98946.78
2022-09-03T23:23:22.176Z,98944.03
2022-09-03T23:26:15.280Z,98951.56
2022-09-03T23:29:40.746Z,98946.03
2022-09-03T23:32:33.117Z,98954.34
2022-09-03T23:35:19.527Z,98953.56
2022-09-03T23:38:29.144Z,98949.25
2022-09-03T23:41:25.968Z,98953.22
2022-09-03T23:44:23.838Z,98949.25
2022-09-03T23:47:54.624Z,98953.22
2022-09-03T23:51:07.224Z,98949.66
2022-09-03T23:54:11.034Z,98948.91
2022-09-03T23:57:15.439Z,98950.09
